createdAt,value
2018-07-23T00:02:19.419Z,54.90
2018-07-23T00:04:48.496Z,54.43
2018-07-23T00:07:17.444Z,54.46
2018-07-23T00:09:46.480Z,55.24
2018-07-23T00:12:15.926Z,54.82
2018-07-23T00:14:44.887Z,54.74
2018-07-23T00:17:13.837Z,54.73
2018-07-23T00:19:42.853Z,54.85
2018-07-23T00:22:11.921Z,56.11
2018-07-23T00:24:41.318Z,55.20
2018-07-23T00:27:10.442Z,56.04
2018-07-23T00:29:39.395Z,56.42
2018-07-23T00:32:08.710Z,56.79
2018-07-23T00:34:37.738Z,56.50
2018-07-23T00:37:06.834Z,56.93
2018-07-23T00:39:36.184Z,57.03
2018-07-23T00:42:05.553Z,58.44
2018-07-23T00:44:34.590Z,59.38
2018-07-23T00:47:03.644Z,60.61
2018-07-23T00:49:32.680Z,60.12
2018-07-23T00:52:01.696Z,60.59
2018-07-23T00:54:30.644Z,61.09
2018-07-23T00:56:59.639Z,60.49
2018-07-23T00:59:28.772Z,60.46
2018-07-23T01:01:57.844Z,60.18
2018-07-23T01:04:26.818Z,59.83
2018-07-23T01:06:55.847Z,59.37
2018-07-23T01:09:24.800Z,59.67
2018-07-23T01:11:53.844Z,59.07
2018-07-23T01:14:22.840Z,59.17
2018-07-23T01:16:51.824Z,59.77
2018-07-23T01:19:20.824Z,59.50
2018-07-23T01:21:49.816Z,60.40
2018-07-23T01:24:18.880Z,60.95
2018-07-23T01:26:48.027Z,61.74
2018-07-23T01:29:17.008Z,62.88
2018-07-23T01:31:46.024Z,62.19
2018-07-23T01:34:15.332Z,62.20
2018-07-23T01:36:44.318Z,62.24
2018-07-23T01:39:13.348Z,61.50
2018-07-23T01:41:42.368Z,62.11
2018-07-23T01:44:11.360Z,62.38
2018-07-23T01:46:40.430Z,62.41
2018-07-23T01:49:09.404Z,61.71
2018-07-23T01:51:40.678Z,61.85
2018-07-23T01:54:10.690Z,61.79
2018-07-23T01:56:39.826Z,61.80
2018-07-23T01:59:08.828Z,62.21
2018-07-23T02:01:37.862Z,61.79
2018-07-23T02:04:07.578Z,61.47
2018-07-23T02:06:36.892Z,62.40
2018-07-23T02:09:11.612Z,61.96
2018-07-23T02:11:41.233Z,62.08
2018-07-23T02:14:10.282Z,62.70
2018-07-23T02:16:39.280Z,62.98
2018-07-23T02:19:11.507Z,63.16
2018-07-23T02:21:40.560Z,63.01
2018-07-23T02:24:09.584Z,62.91
2018-07-23T02:26:38.488Z,63.42
2018-07-23T02:29:07.448Z,63.37
2018-07-23T02:31:36.324Z,64.02
2018-07-23T02:34:05.229Z,63.83
2018-07-23T02:36:34.146Z,64.48
2018-07-23T02:39:03.201Z,65.12
2018-07-23T02:41:32.119Z,65.65
2018-07-23T02:44:01.054Z,65.69
2018-07-23T02:46:29.957Z,65.26
2018-07-23T02:48:58.885Z,64.69
2018-07-23T02:51:27.780Z,63.68
2018-07-23T02:53:56.676Z,64.39
2018-07-23T02:56:25.584Z,63.81
2018-07-23T02:58:54.467Z,63.01
2018-07-23T03:01:23.403Z,62.59
2018-07-23T03:03:56.173Z,62.23
2018-07-23T03:06:26.341Z,61.76
2018-07-23T03:08:55.365Z,62.51
2018-07-23T03:11:24.767Z,63.01
2018-07-23T03:13:53.709Z,63.30
2018-07-23T03:16:22.638Z,62.60
2018-07-23T03:18:52.013Z,63.34
2018-07-23T03:21:20.916Z,63.35
2018-07-23T03:23:49.811Z,62.89
2018-07-23T03:26:19.247Z,63.17
2018-07-23T03:28:48.180Z,63.21
2018-07-23T03:31:17.416Z,63.62
2018-07-23T03:33:46.307Z,62.69
2018-07-23T03:36:15.243Z,63.20
2018-07-23T03:38:44.180Z,62.95
2018-07-23T03:41:13.080Z,63.41
2018-07-23T03:43:42.137Z,63.67
2018-07-23T03:46:11.067Z,64.00
2018-07-23T03:48:40.005Z,64.84
2018-07-23T03:51:08.911Z,65.10
2018-07-23T03:53:37.851Z,65.05
2018-07-23T03:56:07.018Z,64.85
2018-07-23T03:58:36.029Z,64.43
2018-07-23T04:01:04.985Z,65.18
2018-07-23T04:03:33.903Z,65.12
2018-07-23T04:06:02.897Z,65.08
2018-07-23T04:08:31.781Z,65.87
2018-07-23T04:11:00.695Z,65.19
2018-07-23T04:13:29.601Z,65.33
2018-07-23T04:15:58.512Z,67.19
2018-07-23T04:18:27.431Z,65.68
2018-07-23T04:20:56.370Z,66.30
2018-07-23T04:23:25.320Z,65.51
2018-07-23T04:25:54.232Z,65.05
2018-07-23T04:28:23.135Z,64.67
2018-07-23T04:30:52.431Z,64.08
2018-07-23T04:33:22.193Z,64.52
2018-07-23T04:35:51.183Z,63.90
2018-07-23T04:38:20.165Z,63.47
2018-07-23T04:40:49.144Z,64.49
2018-07-23T04:43:18.034Z,64.28
2018-07-23T04:45:46.931Z,64.65
2018-07-23T04:48:15.822Z,64.89
2018-07-23T04:50:44.815Z,64.22
2018-07-23T04:53:13.754Z,64.26
2018-07-23T04:55:42.695Z,64.91
2018-07-23T04:58:11.611Z,65.13
2018-07-23T05:00:40.546Z,64.25
2018-07-23T05:03:09.495Z,64.64
2018-07-23T05:05:38.377Z,63.95
2018-07-23T05:08:07.398Z,63.97
2018-07-23T05:10:36.294Z,63.67
2018-07-23T05:13:05.579Z,63.67
2018-07-23T05:15:34.504Z,64.44
2018-07-23T05:18:03.408Z,64.60
2018-07-23T05:20:32.343Z,63.94
2018-07-23T05:23:01.276Z,63.62
2018-07-23T05:25:31.440Z,65.04
2018-07-23T05:28:00.388Z,65.55
2018-07-23T05:30:29.296Z,65.58
2018-07-23T05:32:58.309Z,66.45
2018-07-23T05:35:27.270Z,66.09
2018-07-23T05:37:56.221Z,65.81
2018-07-23T05:40:25.151Z,65.99
2018-07-23T05:42:54.088Z,66.25
2018-07-23T05:45:22.999Z,66.59
2018-07-23T05:47:51.954Z,66.54
2018-07-23T05:50:20.906Z,66.95
2018-07-23T05:52:49.821Z,65.76
2018-07-23T05:55:18.745Z,65.44
2018-07-23T05:57:47.713Z,65.83
2018-07-23T06:00:16.641Z,65.53
2018-07-23T06:02:45.604Z,64.94
2018-07-23T06:05:14.580Z,65.19
2018-07-23T06:07:43.557Z,64.60
2018-07-23T06:10:12.569Z,64.64
2018-07-23T06:12:41.509Z,65.41
2018-07-23T06:15:11.723Z,64.97
2018-07-23T06:17:40.835Z,64.73
2018-07-23T06:20:10.163Z,64.54
2018-07-23T06:22:39.084Z,64.45
2018-07-23T06:25:09.384Z,64.73
2018-07-23T06:27:38.319Z,64.69
2018-07-23T06:30:09.561Z,63.74
2018-07-23T06:32:38.623Z,63.53
2018-07-23T06:35:07.635Z,63.85
2018-07-23T06:37:36.716Z,62.98
2018-07-23T06:40:09.245Z,63.16
2018-07-23T06:42:38.159Z,64.07
2018-07-23T06:45:07.124Z,63.99
2018-07-23T06:47:36.076Z,63.74
2018-07-23T06:50:05.799Z,63.14
2018-07-23T06:52:34.761Z,62.61
2018-07-23T06:55:03.725Z,61.52
2018-07-23T06:57:32.706Z,60.74
2018-07-23T07:00:01.645Z,60.02
2018-07-23T07:02:30.599Z,59.08
2018-07-23T07:04:59.511Z,58.66
2018-07-23T07:07:28.469Z,57.10
2018-07-23T07:09:57.965Z,56.69
2018-07-23T07:12:26.890Z,55.79
2018-07-23T07:14:55.871Z,55.44
2018-07-23T07:17:24.801Z,54.16
2018-07-23T07:19:53.804Z,54.13
2018-07-23T07:22:22.849Z,54.21
2018-07-23T07:24:51.933Z,53.88
2018-07-23T07:27:21.369Z,53.56
2018-07-23T07:29:50.273Z,52.62
2018-07-23T07:32:19.223Z,52.82
2018-07-23T07:34:48.248Z,53.48
2018-07-23T07:37:17.248Z,52.58
2018-07-23T07:39:46.177Z,52.36
2018-07-23T07:42:15.108Z,51.95
2018-07-23T07:44:44.109Z,52.19
2018-07-23T07:47:13.065Z,52.25
2018-07-23T07:49:42.035Z,52.64
2018-07-23T07:52:11.019Z,52.79
2018-07-23T07:54:40.068Z,52.11
2018-07-23T07:57:08.999Z,52.07
2018-07-23T07:59:37.921Z,52.63
2018-07-23T08:02:06.918Z,52.29
2018-07-23T08:04:36.093Z,52.86
2018-07-23T08:07:05.067Z,52.32
2018-07-23T08:09:33.988Z,52.05
2018-07-23T08:12:03.016Z,52.04
2018-07-23T08:14:32.574Z,51.97
2018-07-23T08:17:01.626Z,51.52
2018-07-23T08:19:30.540Z,51.33
2018-07-23T08:21:59.451Z,51.06
2018-07-23T08:24:28.380Z,50.07
2018-07-23T08:26:57.334Z,50.95
2018-07-23T08:29:26.348Z,50.64
2018-07-23T08:31:55.392Z,50.36
2018-07-23T08:34:24.753Z,51.19
2018-07-23T08:36:53.752Z,50.75
2018-07-23T08:39:22.694Z,51.33
2018-07-23T08:41:52.478Z,50.77
2018-07-23T08:44:21.433Z,50.94
2018-07-23T08:46:50.344Z,50.79
2018-07-23T08:49:24.714Z,51.31
2018-07-23T08:51:59.336Z,50.66
2018-07-23T08:54:28.266Z,51.11
2018-07-23T08:56:57.220Z,51.11
2018-07-23T08:59:26.147Z,51.02
2018-07-23T09:01:55.060Z,51.25
2018-07-23T09:04:24.120Z,51.23
2018-07-23T09:06:53.125Z,50.91
2018-07-23T09:09:22.112Z,49.74
2018-07-23T09:11:51.056Z,49.15
2018-07-23T09:14:20.353Z,48.13
2018-07-23T09:16:49.250Z,49.10
2018-07-23T09:19:18.142Z,48.89
2018-07-23T09:21:47.082Z,48.88
2018-07-23T09:24:16.029Z,48.10
2018-07-23T09:26:45.678Z,49.19
2018-07-23T09:29:14.581Z,48.59
2018-07-23T09:31:43.544Z,48.28
2018-07-23T09:34:12.442Z,47.61
2018-07-23T09:36:41.352Z,48.09
2018-07-23T09:39:10.785Z,47.93
2018-07-23T09:41:39.814Z,49.05
2018-07-23T09:44:08.794Z,48.09
2018-07-23T09:46:37.722Z,49.04
2018-07-23T09:49:06.660Z,49.26
2018-07-23T09:51:35.569Z,47.87
2018-07-23T09:54:04.597Z,48.30
2018-07-23T09:56:33.508Z,47.49
2018-07-23T09:59:02.438Z,48.39
2018-07-23T10:01:31.370Z,48.38
2018-07-23T10:04:00.376Z,48.26
2018-07-23T10:06:29.332Z,48.21
2018-07-23T10:08:58.301Z,48.31
2018-07-23T10:11:27.217Z,47.38
2018-07-23T10:13:56.111Z,46.95
2018-07-23T10:16:25.093Z,46.35
2018-07-23T10:18:53.987Z,46.65
2018-07-23T10:21:22.953Z,47.20
2018-07-23T10:23:51.984Z,48.79
2018-07-23T10:26:20.891Z,48.22
2018-07-23T10:28:49.794Z,47.83
2018-07-23T10:31:18.812Z,47.88
2018-07-23T10:33:49.192Z,47.09
2018-07-23T10:36:18.097Z,47.91
2018-07-23T10:38:47.020Z,48.76
2018-07-23T10:41:16.412Z,48.79
2018-07-23T10:43:45.299Z,48.89
2018-07-23T10:46:14.230Z,49.23
2018-07-23T10:48:43.205Z,49.22
2018-07-23T10:51:12.137Z,49.68
2018-07-23T10:53:41.136Z,49.26
2018-07-23T10:56:10.056Z,48.98
2018-07-23T10:58:39.016Z,48.89
2018-07-23T11:01:07.981Z,49.47
2018-07-23T11:03:36.886Z,48.11
2018-07-23T11:06:05.950Z,48.17
2018-07-23T11:08:34.942Z,47.91
2018-07-23T11:11:03.912Z,47.52
2018-07-23T11:13:33.136Z,47.36
2018-07-23T11:16:02.066Z,47.51
2018-07-23T11:18:30.988Z,47.99
2018-07-23T11:20:59.894Z,47.43
2018-07-23T11:23:28.814Z,47.33
2018-07-23T11:25:57.729Z,47.70
2018-07-23T11:28:29.668Z,48.25
2018-07-23T11:30:58.660Z,46.56
2018-07-23T11:33:27.563Z,46.02
2018-07-23T11:35:56.549Z,46.33
2018-07-23T11:38:25.490Z,46.54
2018-07-23T11:40:56.633Z,47.02
2018-07-23T11:43:25.574Z,46.78
2018-07-23T11:45:54.493Z,46.75
2018-07-23T11:48:23.415Z,47.07
2018-07-23T11:50:52.467Z,46.58
2018-07-23T11:53:22.637Z,46.80
2018-07-23T11:55:51.593Z,46.09
2018-07-23T11:58:20.580Z,46.68
2018-07-23T12:00:50.109Z,46.75
2018-07-23T12:03:19.229Z,46.88
2018-07-23T12:05:48.155Z,46.42
2018-07-23T12:08:17.152Z,46.34
2018-07-23T12:10:46.149Z,46.52
2018-07-23T12:13:15.239Z,45.33
2018-07-23T12:15:44.499Z,45.39
2018-07-23T12:18:13.508Z,45.22
2018-07-23T12:20:42.521Z,45.24
2018-07-23T12:23:11.906Z,45.04
2018-07-23T12:25:41.868Z,45.48
2018-07-23T12:28:11.831Z,45.02
2018-07-23T12:30:41.523Z,45.06
2018-07-23T12:33:10.719Z,45.26
2018-07-23T12:35:39.639Z,44.77
2018-07-23T12:38:08.547Z,45.16
2018-07-23T12:40:37.499Z,44.95
2018-07-23T12:43:06.557Z,44.80
2018-07-23T12:45:35.545Z,45.00
2018-07-23T12:48:04.487Z,44.30
2018-07-23T12:50:33.431Z,44.78
2018-07-23T12:53:02.359Z,44.29
2018-07-23T12:55:31.336Z,44.35
2018-07-23T12:58:00.215Z,44.88
2018-07-23T13:00:29.222Z,44.47
2018-07-23T13:02:58.135Z,44.48
2018-07-23T13:05:31.837Z,44.86
2018-07-23T13:08:01.899Z,44.49
2018-07-23T13:10:30.811Z,44.88
2018-07-23T13:12:59.932Z,44.29
2018-07-23T13:15:28.893Z,44.42
2018-07-23T13:17:58.812Z,44.49
2018-07-23T13:20:27.767Z,44.62
2018-07-23T13:22:56.683Z,44.56
2018-07-23T13:25:25.616Z,44.22
2018-07-23T13:27:54.654Z,44.04
2018-07-23T13:30:23.583Z,44.11
2018-07-23T13:32:52.747Z,43.77
2018-07-23T13:35:21.640Z,43.85
2018-07-23T13:37:50.598Z,43.34
2018-07-23T13:40:19.616Z,42.91
2018-07-23T13:42:48.505Z,43.96
2018-07-23T13:45:17.481Z,43.35
2018-07-23T13:47:46.513Z,43.11
2018-07-23T13:50:15.505Z,43.61
2018-07-23T13:52:45.043Z,42.89
2018-07-23T13:55:14.002Z,43.58
2018-07-23T13:57:43.032Z,43.07
2018-07-23T14:00:11.945Z,42.98
2018-07-23T14:02:40.907Z,42.68
2018-07-23T14:05:09.868Z,42.63
2018-07-23T14:07:38.807Z,42.92
2018-07-23T14:10:07.766Z,43.47
2018-07-23T14:12:37.627Z,43.39
2018-07-23T14:15:06.578Z,42.35
2018-07-23T14:17:35.417Z,42.28
2018-07-23T14:20:04.463Z,41.79
2018-07-23T14:22:33.369Z,41.76
2018-07-23T14:25:02.327Z,41.86
2018-07-23T14:27:31.195Z,42.20
2018-07-23T14:30:00.120Z,42.13
2018-07-23T14:32:29.062Z,42.07
2018-07-23T14:34:57.958Z,41.97
2018-07-23T14:37:26.904Z,42.69
2018-07-23T14:39:55.790Z,42.03
2018-07-23T14:42:24.770Z,42.45
2018-07-23T14:44:53.662Z,42.25
2018-07-23T14:47:22.577Z,42.51
2018-07-23T14:49:51.611Z,42.43
2018-07-23T14:52:20.483Z,42.58
2018-07-23T14:54:49.426Z,42.45
2018-07-23T14:57:18.337Z,42.21
2018-07-23T14:59:47.246Z,42.46
2018-07-23T15:02:16.208Z,42.66
2018-07-23T15:04:45.184Z,42.67
2018-07-23T15:07:14.093Z,43.26
2018-07-23T15:09:43.879Z,42.77
2018-07-23T15:12:12.868Z,42.85
2018-07-23T15:14:41.780Z,42.97
2018-07-23T15:17:10.682Z,42.84
2018-07-23T15:19:39.621Z,43.07
2018-07-23T15:22:09.038Z,43.20
2018-07-23T15:24:37.941Z,43.66
2018-07-23T15:27:06.916Z,44.13
2018-07-23T15:29:35.833Z,43.78
2018-07-23T15:32:05.507Z,43.61
2018-07-23T15:34:34.411Z,43.88
2018-07-23T15:37:03.333Z,43.87
2018-07-23T15:39:32.243Z,44.07
2018-07-23T15:42:01.429Z,43.58
2018-07-23T15:44:30.524Z,44.23
2018-07-23T15:46:59.267Z,43.97
2018-07-23T15:49:28.151Z,43.83
2018-07-23T15:51:57.181Z,44.77
2018-07-23T15:54:26.059Z,44.75
2018-07-23T15:56:55.001Z,44.24
2018-07-23T15:59:23.965Z,43.65
2018-07-23T16:01:53.893Z,43.62
2018-07-23T16:04:22.807Z,44.22
2018-07-23T16:06:51.679Z,43.58
2018-07-23T16:09:20.704Z,43.42
2018-07-23T16:11:49.588Z,43.04
2018-07-23T16:14:18.489Z,42.97
2018-07-23T16:16:47.403Z,42.60
2018-07-23T16:19:16.875Z,42.48
2018-07-23T16:21:45.959Z,42.80
2018-07-23T16:24:14.853Z,41.86
2018-07-23T16:26:43.795Z,42.18
2018-07-23T16:29:14.463Z,42.52
2018-07-23T16:31:43.340Z,41.86
2018-07-23T16:34:12.286Z,41.33
2018-07-23T16:36:41.186Z,41.97
2018-07-23T16:39:12.078Z,41.01
2018-07-23T16:41:41.292Z,40.30
2018-07-23T16:44:10.396Z,40.35
2018-07-23T16:46:39.380Z,40.32
2018-07-23T16:49:08.255Z,40.18
2018-07-23T16:51:37.192Z,39.86
2018-07-23T16:54:06.184Z,39.54
2018-07-23T16:56:35.012Z,39.41
2018-07-23T16:59:04.013Z,39.97
2018-07-23T17:01:32.911Z,39.74
2018-07-23T17:04:01.846Z,39.86
2018-07-23T17:06:30.780Z,39.37
2018-07-23T17:08:59.775Z,39.28
2018-07-23T17:11:28.763Z,39.35
2018-07-23T17:13:57.661Z,39.59
2018-07-23T17:16:26.588Z,39.33
2018-07-23T17:18:55.543Z,39.24
2018-07-23T17:21:24.484Z,39.06
2018-07-23T17:23:53.426Z,39.55
2018-07-23T17:26:22.326Z,39.57
2018-07-23T17:28:51.337Z,40.33
2018-07-23T17:31:20.213Z,39.50
2018-07-23T17:33:55.664Z,39.28
2018-07-23T17:36:24.626Z,39.43
2018-07-23T17:38:53.533Z,39.23
2018-07-23T17:41:22.558Z,39.15
2018-07-23T17:43:51.520Z,39.32
2018-07-23T17:46:20.439Z,39.33
2018-07-23T17:48:49.718Z,38.54
2018-07-23T17:51:18.612Z,38.98
2018-07-23T17:53:47.698Z,38.80
2018-07-23T17:56:16.602Z,38.62
2018-07-23T17:58:45.544Z,38.75
2018-07-23T18:01:14.443Z,38.81
2018-07-23T18:03:43.332Z,38.92
2018-07-23T18:06:12.261Z,39.04
2018-07-23T18:08:41.189Z,39.46
2018-07-23T18:11:10.187Z,39.16
2018-07-23T18:13:39.154Z,39.47
2018-07-23T18:16:08.425Z,39.55
2018-07-23T18:18:37.372Z,39.21
2018-07-23T18:21:06.255Z,39.30
2018-07-23T18:23:35.198Z,39.93
2018-07-23T18:26:04.133Z,40.11
2018-07-23T18:28:33.148Z,40.25
2018-07-23T18:31:02.175Z,39.88
2018-07-23T18:33:31.113Z,39.97
2018-07-23T18:36:00.807Z,40.25
2018-07-23T18:38:29.881Z,40.50
2018-07-23T18:40:58.695Z,40.56
2018-07-23T18:43:27.791Z,40.70
2018-07-23T18:45:56.795Z,40.94
2018-07-23T18:49:37.320Z,41.07
2018-07-23T18:52:06.321Z,40.82
2018-07-23T18:54:35.675Z,41.10
2018-07-23T18:57:06.553Z,40.98
2018-07-23T18:59:35.578Z,40.66
2018-07-23T19:02:06.921Z,40.40
2018-07-23T19:04:35.963Z,40.75
2018-07-23T19:07:05.340Z,40.38
2018-07-23T19:09:34.315Z,40.74
2018-07-23T19:12:03.303Z,41.18
2018-07-23T19:14:32.203Z,40.93
2018-07-23T19:17:02.155Z,40.47
2018-07-23T19:19:31.100Z,40.59
2018-07-23T19:22:00.160Z,40.32
2018-07-23T19:24:29.115Z,41.31
2018-07-23T19:26:58.019Z,40.60
2018-07-23T19:29:26.995Z,40.85
2018-07-23T19:31:56.024Z,40.41
2018-07-23T19:34:24.941Z,40.90
2018-07-23T19:36:53.923Z,40.58
2018-07-23T19:39:23.112Z,40.47
2018-07-23T19:41:52.091Z,40.81
2018-07-23T19:44:21.009Z,40.71
2018-07-23T19:46:49.945Z,41.27
2018-07-23T19:49:19.003Z,41.06
2018-07-23T19:51:47.967Z,41.21
2018-07-23T19:54:16.835Z,41.22
2018-07-23T19:56:45.728Z,41.04
2018-07-23T19:59:14.664Z,40.93
2018-07-23T20:01:43.581Z,40.93
2018-07-23T20:04:12.517Z,40.93
2018-07-23T20:06:41.425Z,41.06
2018-07-23T20:09:11.243Z,41.06
2018-07-23T20:11:41.059Z,41.27
2018-07-23T20:14:09.968Z,40.98
2018-07-23T20:16:38.828Z,41.61
2018-07-23T20:19:07.748Z,41.46
2018-07-23T20:21:36.667Z,41.37
2018-07-23T20:24:05.663Z,42.08
2018-07-23T20:26:34.567Z,43.64
2018-07-23T20:29:03.567Z,44.50
2018-07-23T20:31:32.436Z,44.32
2018-07-23T20:34:01.401Z,44.88
2018-07-23T20:36:30.287Z,45.53
2018-07-23T20:38:59.249Z,45.87
2018-07-23T20:41:28.121Z,46.24
2018-07-23T20:43:57.159Z,46.48
2018-07-23T20:46:26.069Z,46.93
2018-07-23T20:48:55.027Z,47.06
2018-07-23T20:51:24.057Z,47.59
2018-07-23T20:53:53.173Z,47.20
2018-07-23T20:56:22.124Z,47.15
2018-07-23T20:58:51.085Z,47.60
2018-07-23T21:01:20.008Z,46.92
2018-07-23T21:03:49.005Z,47.15
2018-07-23T21:06:17.895Z,47.51
2018-07-23T21:08:46.897Z,47.62
2018-07-23T21:11:15.922Z,47.84
2018-07-23T21:13:45.122Z,48.08
2018-07-23T21:16:14.056Z,48.25
2018-07-23T21:18:43.020Z,48.07
2018-07-23T21:21:11.929Z,48.08
2018-07-23T21:23:40.877Z,47.83
2018-07-23T21:26:09.907Z,48.41
2018-07-23T21:28:38.865Z,47.99
2018-07-23T21:31:07.935Z,48.34
2018-07-23T21:33:36.866Z,47.85
2018-07-23T21:36:05.840Z,47.56
2018-07-23T21:38:34.836Z,47.60
2018-07-23T21:41:03.756Z,47.96
2018-07-23T21:43:32.706Z,47.48
2018-07-23T21:46:01.607Z,47.74
2018-07-23T21:48:31.321Z,47.77
2018-07-23T21:51:00.225Z,48.44
2018-07-23T21:53:29.315Z,48.37
2018-07-23T21:55:58.187Z,48.96
2018-07-23T21:58:27.098Z,48.50
2018-07-23T22:00:56.074Z,48.44
2018-07-23T22:03:24.937Z,49.04
2018-07-23T22:05:53.964Z,48.89
2018-07-23T22:08:22.967Z,49.06
2018-07-23T22:10:52.749Z,48.33
2018-07-23T22:13:21.663Z,48.22
2018-07-23T22:15:50.583Z,48.67
2018-07-23T22:18:19.468Z,48.51
2018-07-23T22:20:48.441Z,48.30
2018-07-23T22:23:17.433Z,48.77
2018-07-23T22:25:46.416Z,48.73
2018-07-23T22:28:15.310Z,49.11
2018-07-23T22:30:44.256Z,48.98
2018-07-23T22:33:13.176Z,49.05
2018-07-23T22:35:42.353Z,49.25
2018-07-23T22:38:11.250Z,49.53
2018-07-23T22:40:40.173Z,50.10
2018-07-23T22:43:09.165Z,50.39
2018-07-23T22:45:38.165Z,50.74
2018-07-23T22:48:07.300Z,51.05
2018-07-23T22:50:36.198Z,51.38
2018-07-23T22:53:05.253Z,51.85
2018-07-23T22:55:34.729Z,51.46
2018-07-23T22:58:03.620Z,52.18
2018-07-23T23:00:33.606Z,52.14
2018-07-23T23:03:02.552Z,52.20
2018-07-23T23:05:31.776Z,52.37
2018-07-23T23:08:00.664Z,52.61
2018-07-23T23:10:29.555Z,52.30
2018-07-23T23:12:58.507Z,53.05
2018-07-23T23:15:28.246Z,53.10
2018-07-23T23:17:57.155Z,53.31
2018-07-23T23:20:26.142Z,53.48
2018-07-23T23:22:56.042Z,53.60
2018-07-23T23:25:24.991Z,53.32
2018-07-23T23:27:53.856Z,53.53
2018-07-23T23:30:22.809Z,54.58
2018-07-23T23:32:51.805Z,54.50
2018-07-23T23:35:21.804Z,55.04
2018-07-23T23:37:50.718Z,55.53
2018-07-23T23:40:19.621Z,55.68
2018-07-23T23:42:48.588Z,55.67
2018-07-23T23:45:17.465Z,56.52
2018-07-23T23:47:46.383Z,55.81
2018-07-23T23:50:15.272Z,56.66
2018-07-23T23:52:44.190Z,56.22
2018-07-23T23:55:13.284Z,56.05
2018-07-23T23:57:42.230Z,56.28
